Sophia Golding — WDG4196 — position and weather

sailwx.info

Track history (hours):
 
Tides and Currents Weather Stations Pressure Air Temp Water Temp Dewpoint Dewpoint Depression Visibility Wind Speed Wind Dir Waves Ship Positions

Sophia Golding

Owner: GOLDING BARGE LINE, INC, VICKSBURG, MS. More information available from US FCC via Universal Licensing System and Coast Guard Vessel Documentation Center.

Last reported at 2017-Oct-17 05:30 UTC. Time now 2017-Oct-17 05:38 UTC.
Position N 29°44' W 095°10'.

Length 29 m; draft 2.9 m.

Type: . MMSI: 367534010.

Date/timePositionNaut miles runAvg speedWind from/ knotsBaromVisibWave heightAir tempDewpointWater temp
2017-Oct-17 05:30N 29°44' W 095°10'0 0.0
2017-Oct-17 05:01N 29°44' W 095°10'0 0.1
2017-Oct-17 04:30N 29°44' W 095°10'0 0.0
2017-Oct-17 04:00N 29°44' W 095°10'0 0.1
2017-Oct-17 03:16N 29°44' W 095°10'0 0.5
2017-Oct-17 03:00N 29°45' W 095°10'0 0.6
2017-Oct-17 02:30N 29°44' W 095°10'3 5.1
2017-Oct-17 01:56N 29°45' W 095°06'2 4.9
2017-Oct-17 01:30N 29°45' W 095°04'3 6.4
2017-Oct-17 01:00N 29°43' W 095°01'4 7.4
2017-Oct-17 00:30N 29°40' W 094°58'4 8.5
2017-Oct-17 00:00N 29°36' W 094°57'4 8.7
2017-Oct-16 23:30N 29°32' W 094°54'  
2017-Oct-14 03:54N 29°24' W 094°45'0 0.0
2017-Oct-13 06:51N 29°24' W 094°45'0 0.0
2017-Oct-13 06:30N 29°24' W 094°45'0 0.0
2017-Oct-13 06:00N 29°24' W 094°45'0 0.0
2017-Oct-13 05:30N 29°24' W 094°45'0 0.0
2017-Oct-13 05:00N 29°24' W 094°45'0 0.0
2017-Oct-13 04:30N 29°24' W 094°45'0 0.0
2017-Oct-13 04:00N 29°24' W 094°45'  
2017-Oct-08 19:33N 29°30' W 094°52'0 4.1
2017-Oct-08 19:30N 29°30' W 094°52'4 7.6
2017-Oct-08 19:00N 29°33' W 094°55'4 7.8
2017-Oct-08 18:30N 29°36' W 094°57'4 7.6
2017-Oct-08 18:00N 29°40' W 094°59'4 7.1
2017-Oct-08 17:29N 29°43' W 095°01'2 1.7
2017-Oct-08 16:25N 29°44' W 095°03'0 0.1
2017-Oct-08 12:50N 29°44' W 095°03'0 0.1
2017-Oct-08 12:30N 29°44' W 095°03'0 0.0
2017-Oct-08 11:59N 29°44' W 095°03'0 0.2
2017-Oct-08 11:22N 29°44' W 095°03'0 0.1
2017-Oct-08 11:00N 29°44' W 095°03'0 0.1
2017-Oct-08 10:30N 29°44' W 095°03'0 0.0
2017-Oct-08 10:00N 29°44' W 095°03'0 0.0
2017-Oct-08 09:31N 29°44' W 095°03'0 0.0
2017-Oct-08 09:00N 29°44' W 095°03'0 0.0
2017-Oct-08 08:30N 29°44' W 095°03'0 0.0
2017-Oct-08 08:00N 29°44' W 095°03'0 0.0
2017-Oct-08 07:31N 29°44' W 095°03'0 0.0
2017-Oct-08 07:00N 29°44' W 095°03'0 0.0
2017-Oct-08 06:30N 29°44' W 095°03'0 0.0
2017-Oct-08 06:00N 29°44' W 095°03'0 0.0
2017-Oct-08 05:31N 29°44' W 095°03'0 0.0
2017-Oct-08 05:00N 29°44' W 095°03'0 0.0
2017-Oct-08 04:30N 29°44' W 095°03'0 0.0
2017-Oct-08 04:01N 29°44' W 095°03'0 0.0
2017-Oct-08 03:30N 29°44' W 095°03'0 0.0
2017-Oct-08 03:00N 29°44' W 095°03'0 0.0
2017-Oct-08 02:31N 29°44' W 095°03'0 0.0
2017-Oct-08 02:01N 29°44' W 095°03'0 0.0
2017-Oct-08 01:30N 29°44' W 095°03'0 0.0
2017-Oct-08 01:00N 29°44' W 095°03'0 0.0
2017-Oct-08 00:30N 29°44' W 095°03'0 0.0
2017-Oct-08 00:00N 29°44' W 095°03'0 0.0
2017-Oct-07 23:31N 29°44' W 095°03'0 0.0
2017-Oct-07 23:00N 29°44' W 095°03'0 0.0
2017-Oct-07 22:30N 29°44' W 095°03'0 0.0
2017-Oct-07 22:00N 29°44' W 095°03'0 0.0
2017-Oct-07 21:31N 29°44' W 095°03'0 0.0
2017-Oct-07 21:00N 29°44' W 095°03'0 0.0
2017-Oct-07 20:30N 29°44' W 095°03'0 0.0
2017-Oct-07 20:00N 29°44' W 095°03'0 0.0
2017-Oct-07 19:30N 29°44' W 095°03'0 0.0
2017-Oct-07 19:00N 29°44' W 095°03'0 0.0
2017-Oct-07 18:30N 29°44' W 095°03'0 0.0
2017-Oct-07 18:00N 29°44' W 095°03'0 0.0
2017-Oct-07 17:30N 29°44' W 095°03'0 0.0
2017-Oct-07 17:00N 29°44' W 095°03'0 0.0
2017-Oct-07 16:30N 29°44' W 095°03'0 0.0
2017-Oct-07 16:01N 29°44' W 095°03'0 0.0
2017-Oct-07 15:30N 29°44' W 095°03'0 0.0
2017-Oct-07 15:00N 29°44' W 095°03'0 0.0
2017-Oct-07 14:30N 29°44' W 095°03'0 0.0
2017-Oct-07 14:00N 29°44' W 095°03'0 0.0
2017-Oct-07 13:31N 29°44' W 095°03'0 0.0
2017-Oct-07 13:00N 29°44' W 095°03'0 0.0
2017-Oct-07 12:31N 29°44' W 095°03'0 0.0
2017-Oct-07 12:00N 29°44' W 095°03'0 0.0
2017-Oct-07 11:31N 29°44' W 095°03'0 0.0
2017-Oct-07 11:00N 29°44' W 095°03'0 0.0
2017-Oct-07 10:30N 29°44' W 095°03'0 0.0
2017-Oct-07 10:01N 29°44' W 095°03'0 0.0
2017-Oct-07 09:30N 29°44' W 095°03'0 0.0
2017-Oct-07 09:01N 29°44' W 095°03'0 0.0
2017-Oct-07 08:30N 29°44' W 095°03'0 0.0
2017-Oct-07 08:00N 29°44' W 095°03'0 0.0
2017-Oct-07 07:30N 29°44' W 095°03'0 0.0
2017-Oct-07 07:00N 29°44' W 095°03'0 0.0
2017-Oct-07 06:30N 29°44' W 095°03'0 0.0
2017-Oct-07 06:00N 29°44' W 095°03'0 0.0
2017-Oct-07 05:30N 29°44' W 095°03'  
Track history (hours):
 
Tides and Currents Weather Stations Pressure Air Temp Water Temp Dewpoint Dewpoint Depression Visibility Wind Speed Wind Dir Waves Ship Positions

Sophia Golding

Owner: GOLDING BARGE LINE, INC, VICKSBURG, MS. More information available from US FCC via Universal Licensing System and Coast Guard Vessel Documentation Center.

Last reported at 2017-Oct-17 05:30 UTC. Time now 2017-Oct-17 05:38 UTC.
Position N 29°44' W 095°10'.

Length 29 m; draft 2.9 m.

Type: . MMSI: 367534010.

Date/timePositionNaut miles runAvg speedWind from/ knotsBaromVisibWave heightAir tempDewpointWater temp
2017-Oct-17 05:30N 29°44' W 095°10'0 0.0
2017-Oct-17 05:01N 29°44' W 095°10'0 0.1
2017-Oct-17 04:30N 29°44' W 095°10'0 0.0
2017-Oct-17 04:00N 29°44' W 095°10'0 0.1
2017-Oct-17 03:16N 29°44' W 095°10'0 0.5
2017-Oct-17 03:00N 29°45' W 095°10'0 0.6
2017-Oct-17 02:30N 29°44' W 095°10'3 5.1
2017-Oct-17 01:56N 29°45' W 095°06'2 4.9
2017-Oct-17 01:30N 29°45' W 095°04'3 6.4
2017-Oct-17 01:00N 29°43' W 095°01'4 7.4
2017-Oct-17 00:30N 29°40' W 094°58'4 8.5
2017-Oct-17 00:00N 29°36' W 094°57'4 8.7
2017-Oct-16 23:30N 29°32' W 094°54'  
2017-Oct-14 03:54N 29°24' W 094°45'0 0.0
2017-Oct-13 06:51N 29°24' W 094°45'0 0.0
2017-Oct-13 06:30N 29°24' W 094°45'0 0.0
2017-Oct-13 06:00N 29°24' W 094°45'0 0.0
2017-Oct-13 05:30N 29°24' W 094°45'0 0.0
2017-Oct-13 05:00N 29°24' W 094°45'0 0.0
2017-Oct-13 04:30N 29°24' W 094°45'0 0.0
2017-Oct-13 04:00N 29°24' W 094°45'  
2017-Oct-08 19:33N 29°30' W 094°52'0 4.1
2017-Oct-08 19:30N 29°30' W 094°52'4 7.6
2017-Oct-08 19:00N 29°33' W 094°55'4 7.8
2017-Oct-08 18:30N 29°36' W 094°57'4 7.6
2017-Oct-08 18:00N 29°40' W 094°59'4 7.1
2017-Oct-08 17:29N 29°43' W 095°01'2 1.7
2017-Oct-08 16:25N 29°44' W 095°03'0 0.1
2017-Oct-08 12:50N 29°44' W 095°03'0 0.1
2017-Oct-08 12:30N 29°44' W 095°03'0 0.0
2017-Oct-08 11:59N 29°44' W 095°03'0 0.2
2017-Oct-08 11:22N 29°44' W 095°03'0 0.1
2017-Oct-08 11:00N 29°44' W 095°03'0 0.1
2017-Oct-08 10:30N 29°44' W 095°03'0 0.0
2017-Oct-08 10:00N 29°44' W 095°03'0 0.0
2017-Oct-08 09:31N 29°44' W 095°03'0 0.0
2017-Oct-08 09:00N 29°44' W 095°03'0 0.0
2017-Oct-08 08:30N 29°44' W 095°03'0 0.0
2017-Oct-08 08:00N 29°44' W 095°03'0 0.0
2017-Oct-08 07:31N 29°44' W 095°03'0 0.0
2017-Oct-08 07:00N 29°44' W 095°03'0 0.0
2017-Oct-08 06:30N 29°44' W 095°03'0 0.0
2017-Oct-08 06:00N 29°44' W 095°03'0 0.0
2017-Oct-08 05:31N 29°44' W 095°03'0 0.0
2017-Oct-08 05:00N 29°44' W 095°03'0 0.0
2017-Oct-08 04:30N 29°44' W 095°03'0 0.0
2017-Oct-08 04:01N 29°44' W 095°03'0 0.0
2017-Oct-08 03:30N 29°44' W 095°03'0 0.0
2017-Oct-08 03:00N 29°44' W 095°03'0 0.0
2017-Oct-08 02:31N 29°44' W 095°03'0 0.0
2017-Oct-08 02:01N 29°44' W 095°03'0 0.0
2017-Oct-08 01:30N 29°44' W 095°03'0 0.0
2017-Oct-08 01:00N 29°44' W 095°03'0 0.0
2017-Oct-08 00:30N 29°44' W 095°03'0 0.0
2017-Oct-08 00:00N 29°44' W 095°03'0 0.0
2017-Oct-07 23:31N 29°44' W 095°03'0 0.0
2017-Oct-07 23:00N 29°44' W 095°03'0 0.0
2017-Oct-07 22:30N 29°44' W 095°03'0 0.0
2017-Oct-07 22:00N 29°44' W 095°03'0 0.0
2017-Oct-07 21:31N 29°44' W 095°03'0 0.0
2017-Oct-07 21:00N 29°44' W 095°03'0 0.0
2017-Oct-07 20:30N 29°44' W 095°03'0 0.0
2017-Oct-07 20:00N 29°44' W 095°03'0 0.0
2017-Oct-07 19:30N 29°44' W 095°03'0 0.0
2017-Oct-07 19:00N 29°44' W 095°03'0 0.0
2017-Oct-07 18:30N 29°44' W 095°03'0 0.0
2017-Oct-07 18:00N 29°44' W 095°03'0 0.0
2017-Oct-07 17:30N 29°44' W 095°03'0 0.0
2017-Oct-07 17:00N 29°44' W 095°03'0 0.0
2017-Oct-07 16:30N 29°44' W 095°03'0 0.0
2017-Oct-07 16:01N 29°44' W 095°03'0 0.0
2017-Oct-07 15:30N 29°44' W 095°03'0 0.0
2017-Oct-07 15:00N 29°44' W 095°03'0 0.0
2017-Oct-07 14:30N 29°44' W 095°03'0 0.0
2017-Oct-07 14:00N 29°44' W 095°03'0 0.0
2017-Oct-07 13:31N 29°44' W 095°03'0 0.0
2017-Oct-07 13:00N 29°44' W 095°03'0 0.0
2017-Oct-07 12:31N 29°44' W 095°03'0 0.0
2017-Oct-07 12:00N 29°44' W 095°03'0 0.0
2017-Oct-07 11:31N 29°44' W 095°03'0 0.0
2017-Oct-07 11:00N 29°44' W 095°03'0 0.0
2017-Oct-07 10:30N 29°44' W 095°03'0 0.0
2017-Oct-07 10:01N 29°44' W 095°03'0 0.0
2017-Oct-07 09:30N 29°44' W 095°03'0 0.0
2017-Oct-07 09:01N 29°44' W 095°03'0 0.0
2017-Oct-07 08:30N 29°44' W 095°03'0 0.0
2017-Oct-07 08:00N 29°44' W 095°03'0 0.0
2017-Oct-07 07:30N 29°44' W 095°03'0 0.0
2017-Oct-07 07:00N 29°44' W 095°03'0 0.0
2017-Oct-07 06:30N 29°44' W 095°03'0 0.0
2017-Oct-07 06:00N 29°44' W 095°03'0 0.0
2017-Oct-07 05:30N 29°44' W 095°03'  

Dump ship's entire track history